Muncie, IN (47303)

7:40 AM EST on February 28, 2017 (GMT -0500)
Sky Park | | Change Station

Elev 948 ft 40.22 °N, 85.39 °W | Updated 4 seconds ago

Light Rain
Light Rain
46.4 °F
Feels Like 46 °F
N
2.2
Wind Variable Wind from West

Today
High -- | Low -- °F
--% Chance of Precip.
Yesterday
High -- | Low -- °F
Precip. -- in
Pressure 30.01 in
Visibility 8.0 miles
Clouds Mostly Cloudy 6500 ft
Overcast 8000 ft
Windchill 46 °F
Dew Point 44 °F
Humidity 93%
Rainfall 0.07 in
Snow Depth Not available.
7:16 AM 6:32 PM
Waxing Crescent, 5% visible
METAR KMIE 281153Z 17008KT 8SM -RA BKN065 OVC080 09/07 A3001 RMK AO2 SLP161 P0003 60004 70004 T00890067 10094 20078 58014
Pressure 30.01 in
Visibility 8.0 miles
Clouds Mostly Cloudy 6500 ft
Overcast 8000 ft
Windchill 46 °F
Dew Point 44 °F
Humidity 93%
Rainfall 0.07 in
Snow Depth Not available.
7:16 AM 6:32 PM
Waxing Crescent, 5% visible
METAR KMIE 281153Z 17008KT 8SM -RA BKN065 OVC080 09/07 A3001 RMK AO2 SLP161 P0003 60004 70004 T00890067 10094 20078 58014

Get Your Daily Forecast Email!

Thanks for signing up!

Be on the lookout for a verification email in your inbox.

You'll start receiving the daily forecast at 8 AM.

×

10-Day Weather Forecast

Almanac

Astronomy

Feb. 28, 2017 Rise Set
Actual Time
Civil Twilight
Nautical Twilight
Astronomical Twilight
Moon
Length of Visible Light
Length of Day
Tomorrow will be .
, % of the Moon is Illuminated

Today's Extremes

State Highs State Lows

Community

WunderPhotos

Upload Photos

1,962,540 photos uploaded!

WunderBlog® & News

Nearby

Air Quality

  Air Quality AQ Index Pollutant
Not available.

Snow Depth

Station Depth Elevation

Earthquake Activity

City Distance Mag. Time & Date
Minimum magnitude displayed is 2.5.

Coastal Water Temperatures

Place Temperature

Stations

Nearby Weather Stations

Station Location Temp. Windchill Dew Point Humidity Wind Precip. Elev Updated Type
                   

Watches & Warnings

There are currently no watches in effect.